Airfield :
LOGIN :

Register | Disclaimer

   EN    FR    IT 

 










Legend :    VFR   Marginal VFR   IFR   Intensive IFR   Very Intensive IFR
Visi :
Ceiling :
>= 8 km
>= 3000ft
5 to 8 km
1000 to 3000 ft
1500m to 5 km
500 to 1000 ft
800 to 1500m
200 to 500 ft
< 800m
< 200 ft
Symbols :   Thunderstorms  Fog  Heavy snow  Heavy precipitations  Wind > 20 kt
SIGMETs :     Misc.  Thunderstorms  Icing  Turbulence  Mountain Waves  Volcanic Ashes







- Airport Elevation : 796 ft
- IATA code : SYT
- Download approach charts


LFLN - Saint-Yan

CURRENT METAR :
  • 170200Z AUTO VRB03KT 8000 -RA FEW016/// SCT037/// BKN044/// ///TCU 04/04 Q1017

EXPIRED METARs :
  • 170130Z AUTO VRB02KT 5000 -RA BR FEW014 BKN035 OVC044 03/03 Q1017
  • 170100Z AUTO 13001KT 5000 -RA BR OVC029 03/03 Q1016
  • 170030Z AUTO 00000KT 5000 -RA BR BKN028/// OVC034/// ///TCU 03/03 Q1016
  • 170000Z AUTO VRB01KT 3700 -RA BR BKN029/// OVC035/// ///TCU 03/03 Q1016
  • 162330Z AUTO 00000KT 4400 BR FEW001 OVC034 03/03 Q1015

TAF TAF LFLN
Valid from the 16 at 18:00 until the 17 at 03:00 UTC


161700Z 1618/1703 VRB03KT 9999 SCT020
TEMPO 1618/1623 0600 FG
BECMG 1623/1703 4000 -SHRA BKN020TCU
No reported NOTAMs for that airfield.
2 SIGMETs reported for the Marseille FIR (LFMM) :
 
Severe turbulence
LFMM SIGMET 4 VALID 170000/170400 LFPW
LFMM MARSEILLE FIR/UIR SEV TURB FCST S OF N4230 AND E OF E00830 SFC/FL100 STNR NC=
Severe turbulence
LFMM SIGMET 3 VALID 170000/170400 LFPW
LFMM MARSEILLE FIR/UIR SEV TURB FCST WI N4030 E00430 - N4200 E00430 - N4215 E00230 - N4330 E00245 - N4430 E00415 - N4130 E00615 - N4030 E00430 SFC/FL060 STNR NC=



MET'MAP, your aeronautical weather chart ! - Copyright ORBIFLY December 2007 - Disclaimer

ORBIFLY MET'MAP TEAM :

Programming & Development : Alexandra Zaïnal
Concept & Development : Baudouin d'Aumeries
Co-Development & Prog : Marc-Olivier Méhu
Technical & hardware support : Manuel Goepfert

Contact : metmap@orbifly.com




SOURCES & CREDITS :

   NOAA